Time;durP1;ratioP1;P1;durP2;ratioP2;P2;SDS_P1;SDS_P2;PMS_P1;PMS_P2;Temp;Humidity;BMP_temperature;BMP_pressure;BME280_temperature;BME280_humidity;BME280_pressure;Samples;Min_cycle;Max_cycle;Signal;HPM_P1;HPM_P2
2022/08/18 00:00:33;;;;;;;5.80;5.00;;;;;;;18.06;100.00;100034.21;1743862;82;20927;-42
2022/08/18 00:03:04;;;;;;;17.90;5.53;;;;;;;18.06;100.00;100025.50;1743739;82;21431;-42
2022/08/18 00:05:31;;;;;;;10.63;5.50;;;;;;;18.05;100.00;100032.98;1743612;82;20954;-42
2022/08/18 00:07:59;;;;;;;8.48;5.78;;;;;;;18.02;100.00;100035.29;1743783;82;22122;-42
2022/08/18 00:10:26;;;;;;;9.53;5.22;;;;;;;18.01;100.00;100029.67;1743912;82;21006;-42
2022/08/18 00:12:54;;;;;;;16.07;5.05;;;;;;;18.01;100.00;100040.15;1743898;82;21749;-42
2022/08/18 00:15:22;;;;;;;13.22;5.83;;;;;;;18.00;100.00;100039.73;1743920;82;20974;-42
2022/08/18 00:17:48;;;;;;;16.67;6.08;;;;;;;18.00;100.00;100043.66;1743962;82;20994;-42
2022/08/18 00:20:18;;;;;;;12.63;5.55;;;;;;;18.01;100.00;100044.08;1718769;82;21813;-42
2022/08/18 00:22:45;;;;;;;5.40;4.90;;;;;;;18.06;100.00;100036.83;1718897;82;20997;-42
2022/08/18 00:25:14;;;;;;;13.58;4.92;;;;;;;18.09;100.00;100030.11;1743769;82;20942;-42
2022/08/18 00:27:41;;;;;;;13.40;5.33;;;;;;;18.12;100.00;100029.55;1743857;82;21002;-42
2022/08/18 00:30:12;;;;;;;9.30;5.50;;;;;;;18.13;100.00;100029.93;1743876;82;20903;-42
2022/08/18 00:32:43;;;;;;;10.15;5.80;;;;;;;18.16;100.00;100028.44;1719029;82;21778;-42
2022/08/18 00:35:19;;;;;;;15.38;5.53;;;;;;;18.21;100.00;100024.64;1743589;82;21049;-42
2022/08/18 00:37:47;;;;;;;9.10;5.35;;;;;;;18.28;100.00;100026.41;1743978;81;21002;-42
2022/08/18 00:40:18;;;;;;;9.40;5.45;;;;;;;18.31;100.00;100023.61;1744033;81;21050;-42
2022/08/18 00:42:48;;;;;;;7.97;5.20;;;;;;;18.33;100.00;100025.70;1744088;82;21409;-42
2022/08/18 00:45:24;;;;;;;7.35;5.03;;;;;;;18.31;100.00;100032.78;1743661;82;21186;-42
2022/08/18 00:47:51;;;;;;;10.88;5.87;;;;;;;18.29;100.00;100037.27;1744037;82;21013;-42
2022/08/18 00:50:22;;;;;;;7.17;4.85;;;;;;;18.25;100.00;100033.14;1743986;82;21464;-42
2022/08/18 00:52:56;;;;;;;10.03;4.62;;;;;;;18.24;100.00;100027.08;1743911;82;21509;-42
2022/08/18 00:55:22;;;;;;;8.35;5.20;;;;;;;18.24;100.00;100023.59;1743950;82;20951;-42
2022/08/18 00:57:51;;;;;;;6.90;5.62;;;;;;;18.22;100.00;100023.70;1743869;82;21254;-42
2022/08/18 01:00:18;;;;;;;14.63;5.28;;;;;;;18.20;100.00;100024.26;1743730;81;21504;-42
2022/08/18 01:02:48;;;;;;;9.90;5.75;;;;;;;18.19;100.00;100025.19;1743865;82;21013;-42
2022/08/18 01:05:42;;;;;;;8.43;5.50;;;;;;;18.18;100.00;100023.48;1744025;82;21002;-42
2022/08/18 01:08:13;;;;;;;7.45;5.05;;;;;;;18.18;100.00;100030.50;1743679;82;21432;-42
2022/08/18 01:10:39;;;;;;;11.75;4.87;;;;;;;18.15;100.00;100022.83;1719724;82;21070;-42
2022/08/18 01:13:07;;;;;;;7.20;5.85;;;;;;;18.14;100.00;100023.28;1718605;82;20970;-43
2022/08/18 01:15:34;;;;;;;5.85;5.17;;;;;;;18.13;100.00;100018.14;1743789;81;20921;-42
2022/08/18 01:24:00;;;;;;;6.03;5.00;;;;;;;18.15;100.00;100017.11;1743794;82;21184;-42
2022/08/18 01:26:29;;;;;;;11.88;4.75;;;;;;;18.18;100.00;100018.72;1718859;82;21567;-42
2022/08/18 01:29:00;;;;;;;11.60;5.17;;;;;;;18.19;100.00;100018.64;1744094;82;20915;-42
2022/08/18 01:31:37;;;;;;;9.68;5.30;;;;;;;18.22;100.00;100018.47;1719051;82;20951;-42
2022/08/18 01:34:10;;;;;;;14.60;5.37;;;;;;;18.25;100.00;100021.36;1743655;82;21543;-42
2022/08/18 01:36:39;;;;;;;5.65;4.22;;;;;;;18.26;100.00;100020.91;1743870;82;21233;-42
2022/08/18 01:39:08;;;;;;;5.15;4.67;;;;;;;18.26;100.00;100019.59;1743567;81;20999;-42
2022/08/18 01:41:35;;;;;;;13.93;5.35;;;;;;;18.26;100.00;100020.91;1743615;82;21010;-42
2022/08/18 01:44:04;;;;;;;9.30;4.67;;;;;;;18.26;100.00;100020.91;1718656;82;20955;-42
2022/08/18 01:46:32;;;;;;;6.28;4.55;;;;;;;18.27;100.00;100026.03;1718761;82;20911;-42
2022/08/18 01:49:00;;;;;;;10.43;4.80;;;;;;;18.27;100.00;100029.14;1743697;82;21319;-42
2022/08/18 01:51:28;;;;;;;16.07;4.58;;;;;;;18.28;100.00;100028.20;1743602;82;20939;-43
2022/08/18 01:53:57;;;;;;;13.65;5.65;;;;;;;18.28;100.00;100026.41;1743961;82;20911;-42
2022/08/18 01:56:28;;;;;;;10.23;4.58;;;;;;;18.27;100.00;100023.41;1743736;82;20923;-42
2022/08/18 01:58:55;;;;;;;13.75;5.00;;;;;;;18.27;100.00;100018.66;1743793;82;20919;-42
2022/08/18 02:01:23;;;;;;;9.18;4.20;;;;;;;18.27;100.00;100019.97;1743727;82;21059;-42
2022/08/18 02:03:53;;;;;;;4.97;4.03;;;;;;;18.27;100.00;100023.41;1743871;81;20959;-42
2022/08/18 02:06:20;;;;;;;9.68;4.40;;;;;;;18.27;100.00;100028.66;1743740;82;20974;-42
2022/08/18 02:08:47;;;;;;;8.18;4.67;;;;;;;18.26;100.00;100026.97;1743696;82;20899;-42
2022/08/18 02:11:15;;;;;;;11.45;4.90;;;;;;;18.25;100.00;100030.52;1743708;82;21507;-42
2022/08/18 02:13:43;;;;;;;13.03;4.28;;;;;;;18.25;100.00;100026.59;1743695;81;21066;-42
2022/08/18 02:16:11;;;;;;;13.35;4.60;;;;;;;18.26;100.00;100028.77;1743571;82;21046;-42
2022/08/18 02:18:37;;;;;;;11.55;4.47;;;;;;;18.26;100.00;100027.45;1743974;82;21551;-42
2022/08/18 02:21:14;;;;;;;9.93;4.97;;;;;;;18.26;100.00;100034.00;1743787;81;21445;-42
2022/08/18 02:23:42;;;;;;;7.03;4.83;;;;;;;18.24;100.00;100028.84;1743756;82;20947;-42
2022/08/18 02:26:11;;;;;;;7.25;5.58;;;;;;;18.22;100.00;100025.46;1743871;82;21649;-42
2022/08/18 02:28:38;;;;;;;9.88;4.83;;;;;;;18.21;100.00;100029.02;1743971;82;20991;-42
2022/08/18 02:31:11;;;;;;;12.53;5.47;;;;;;;18.18;100.00;100018.23;1743875;82;21500;-42
2022/08/18 02:33:38;;;;;;;10.68;5.80;;;;;;;18.18;100.00;100031.33;1743687;82;21001;-42
2022/08/18 02:36:06;;;;;;;12.20;6.05;;;;;;;18.18;100.00;100027.89;1743649;82;21535;-42
2022/08/18 02:38:33;;;;;;;7.10;5.28;;;;;;;18.17;100.00;100024.89;1714685;82;21918;-42
2022/08/18 02:43:18;;;;;;;13.13;5.97;;;;;;;18.27;100.00;100019.48;1798335;79;22510;-42
2022/08/18 02:45:45;;;;;;;8.53;5.65;;;;;;;18.28;100.00;100022.48;1758294;81;21355;-42
2022/08/18 02:48:12;;;;;;;10.90;5.90;;;;;;;18.34;100.00;100019.53;1758149;81;21181;-42
2022/08/18 02:50:47;;;;;;;10.75;5.90;;;;;;;18.37;100.00;100021.11;1758136;81;20936;-42
2022/08/18 02:53:16;;;;;;;11.63;5.72;;;;;;;18.41;100.00;100023.09;1757068;81;20833;-42
2022/08/18 02:55:39;;;;;;;8.30;5.45;;;;;;;18.52;100.00;100031.16;1757554;81;20908;-42
2022/08/18 02:58:06;;;;;;;9.75;5.70;;;;;;;18.60;100.00;100025.02;1724634;83;21085;-42
2022/08/18 03:00:34;;;;;;;15.85;5.70;;;;;;;18.63;100.00;100024.84;1724686;83;21758;-42
2022/08/18 03:03:01;;;;;;;11.50;5.65;;;;;;;18.66;100.00;100023.80;1724579;83;21691;-42
2022/08/18 03:05:29;;;;;;;11.80;5.50;;;;;;;18.68;100.00;100032.41;1666637;83;20979;-42
2022/08/18 03:07:56;;;;;;;17.02;5.72;;;;;;;18.73;100.00;100030.38;1724799;83;21399;-42
2022/08/18 03:10:24;;;;;;;9.15;5.53;;;;;;;18.82;100.00;100029.00;1724674;83;20947;-42
2022/08/18 03:12:52;;;;;;;8.00;5.28;;;;;;;18.90;100.00;100038.55;1724733;83;21850;-42
2022/08/18 03:15:18;;;;;;;10.95;5.30;;;;;;;18.96;100.00;100036.86;1724587;83;20924;-42
2022/08/18 03:17:46;;;;;;;6.33;5.10;;;;;;;19.04;100.00;100032.95;1724822;83;21497;-42
2022/08/18 03:20:13;;;;;;;7.35;5.37;;;;;;;19.13;100.00;100035.03;1724583;83;20892;-42
2022/08/18 03:22:41;;;;;;;11.53;5.45;;;;;;;19.22;100.00;100029.21;1724537;83;20939;-42
2022/08/18 03:25:08;;;;;;;12.78;5.60;;;;;;;19.31;100.00;100025.64;1721767;83;21248;-42
2022/08/18 03:27:36;;;;;;;5.05;4.65;;;;;;;19.40;100.00;100019.84;1716821;82;21681;-42
2022/08/18 03:30:04;;;;;;;9.20;4.80;;;;;;;19.51;100.00;100020.48;1709154;84;21058;-42
2022/08/18 03:32:31;;;;;;;7.67;5.10;;;;;;;19.62;100.00;100024.56;1709249;84;21030;-42
2022/08/18 03:34:58;;;;;;;7.72;5.22;;;;;;;19.74;100.00;100022.12;1709211;84;20920;-42
2022/08/18 03:37:25;;;;;;;6.25;5.00;;;;;;;19.85;100.00;100024.05;1709109;84;21163;-42
2022/08/18 03:39:53;;;;;;;15.83;6.25;;;;;;;19.92;100.00;100022.74;1709097;84;20956;-42
2022/08/18 03:42:20;;;;;;;17.27;6.00;;;;;;;19.99;100.00;100012.20;1705667;83;21058;-42
2022/08/18 03:44:47;;;;;;;12.78;5.67;;;;;;;20.07;100.00;100016.47;1711780;83;20948;-42
2022/08/18 03:47:14;;;;;;;12.98;5.00;;;;;;;20.16;100.00;100027.34;1702044;84;21070;-42
2022/08/18 03:49:43;;;;;;;13.75;5.37;;;;;;;20.23;100.00;100028.16;1711764;83;21923;-42
2022/08/18 03:52:10;;;;;;;11.70;5.58;;;;;;;20.32;100.00;100032.42;1701937;84;21054;-42
2022/08/18 03:54:37;;;;;;;9.75;4.90;;;;;;;20.41;100.00;100031.80;1685852;85;20933;-42
2022/08/18 03:57:08;;;;;;;17.73;5.40;;;;;;;20.50;100.00;100037.78;1660327;85;20957;-42
2022/08/18 03:59:35;;;;;;;12.95;5.50;;;;;;;20.57;100.00;100034.24;1684878;83;21425;-42
2022/08/18 04:02:03;;;;;;;10.15;5.33;;;;;;;20.67;100.00;100037.09;1701436;84;21147;-42
2022/08/18 04:04:30;;;;;;;8.65;4.80;;;;;;;20.78;100.00;100033.74;1710972;83;20975;-43
2022/08/18 04:07:03;;;;;;;10.95;5.40;;;;;;;20.88;100.00;100040.11;1701483;84;21015;-42
2022/08/18 04:09:31;;;;;;;11.83;5.40;;;;;;;20.99;100.00;100038.52;1685637;85;21629;-42
2022/08/18 04:12:04;;;;;;;10.08;5.55;;;;;;;21.13;100.00;100037.09;1690819;83;21438;-42
2022/08/18 04:14:32;;;;;;;8.45;5.95;;;;;;;21.27;100.00;100032.64;1701469;84;21177;-43
2022/08/18 04:16:59;;;;;;;19.17;6.60;;;;;;;21.41;100.00;100030.35;1711045;83;21545;-42
2022/08/18 04:19:26;;;;;;;13.15;6.97;;;;;;;21.56;100.00;100029.73;1701561;84;21023;-42
2022/08/18 04:21:54;;;;;;;17.92;8.60;;;;;;;21.70;100.00;100023.50;1711159;83;20987;-42
2022/08/18 04:24:21;;;;;;;21.55;8.85;;;;;;;21.84;100.00;100023.81;1701390;84;20956;-42
2022/08/18 04:26:48;;;;;;;14.78;9.18;;;;;;;21.97;100.00;100023.30;1711142;83;21255;-43
2022/08/18 04:29:17;;;;;;;20.70;9.70;;;;;;;22.12;100.00;100031.87;1701297;84;20944;-42
2022/08/18 04:31:44;;;;;;;23.25;10.45;;;;;;;22.31;100.00;100028.70;1711049;83;20996;-43
2022/08/18 04:34:12;;;;;;;17.27;9.53;;;;;;;22.52;100.00;100036.84;1701552;84;20968;-42
2022/08/18 04:36:40;;;;;;;20.80;9.98;;;;;;;22.74;100.00;100031.72;1685883;85;20995;-43
2022/08/18 04:39:08;;;;;;;15.55;9.75;;;;;;;22.94;100.00;100027.07;1711188;83;21451;-42
2022/08/18 04:41:36;;;;;;;18.67;10.10;;;;;;;23.07;100.00;100023.46;1701064;83;21502;-42
2022/08/18 04:44:07;;;;;;;19.00;10.23;;;;;;;23.20;100.00;100028.16;1695993;83;20932;-42
2022/08/18 04:46:38;;;;;;;21.35;11.00;;;;;;;23.35;100.00;100031.88;1695782;84;20928;-42
2022/08/18 04:49:06;;;;;;;20.35;11.68;;;;;;;23.41;100.00;100038.02;1695857;84;20937;-42
2022/08/18 04:51:34;;;;;;;14.30;11.22;;;;;;;23.45;100.00;100032.84;1695945;83;21151;-42
2022/08/18 04:54:01;;;;;;;19.98;11.10;;;;;;;23.56;100.00;100029.34;1695916;83;21407;-42
2022/08/18 04:56:33;;;;;;;24.85;10.90;;;;;;;23.70;100.00;100031.34;1696016;84;21039;-42
2022/08/18 04:59:07;;;;;;;18.45;11.45;;;;;;;23.75;100.00;100030.52;1696015;84;21047;-43
2022/08/18 05:01:44;;;;;;;19.67;12.00;;;;;;;23.82;100.00;100032.51;1695231;84;21039;-42
2022/08/18 05:04:12;;;;;;;19.50;11.48;;;;;;;23.93;100.00;100037.42;1695879;84;21211;-42
2022/08/18 05:06:40;;;;;;;20.43;12.70;;;;;;;23.96;100.00;100035.34;1695723;84;21411;-42
2022/08/18 05:09:08;;;;;;;19.52;11.65;;;;;;;24.01;100.00;100037.66;1695759;83;20948;-42
2022/08/18 05:11:36;;;;;;;21.70;13.08;;;;;;;24.20;100.00;100040.11;1696074;84;21482;-42
2022/08/18 05:14:07;;;;;;;25.30;12.35;;;;;;;24.38;100.00;100041.23;1696011;84;21585;-42
2022/08/18 05:16:35;;;;;;;22.95;12.47;;;;;;;24.54;100.00;100043.90;1695893;84;21237;-42
2022/08/18 05:19:05;;;;;;;18.55;11.68;;;;;;;24.70;100.00;100052.70;1695993;84;21055;-42
2022/08/18 05:21:35;;;;;;;30.97;12.43;;;;;;;24.80;100.00;100048.82;1695612;84;21007;-43
2022/08/18 05:24:03;;;;;;;18.65;11.83;;;;;;;24.74;100.00;100049.31;1696091;84;21482;-42
2022/08/18 05:26:30;;;;;;;18.98;11.80;;;;;;;24.61;100.00;100052.98;1664162;84;21581;-43
2022/08/18 05:28:57;;;;;;;12.98;11.63;;;;;;;24.55;100.00;100054.83;1695932;84;21477;-42
2022/08/18 05:31:26;;;;;;;18.02;11.88;;;;;;;24.51;100.00;100057.38;1695926;84;21003;-42
2022/08/18 05:33:54;;;;;;;15.15;11.78;;;;;;;24.45;100.00;100057.91;1695894;84;21518;-42
2022/08/18 05:36:49;;;;;;;22.42;13.45;;;;;;;24.41;100.00;100056.48;1696010;84;21455;-42
2022/08/18 05:39:51;;;;;;;23.55;12.40;;;;;;;24.39;100.00;100058.78;1695973;83;21023;-43
2022/08/18 05:42:19;;;;;;;14.90;11.78;;;;;;;24.44;100.00;100064.16;1605924;88;21147;-43
2022/08/18 05:44:49;;;;;;;20.00;11.83;;;;;;;24.56;100.00;100070.23;1676951;84;21011;-42
2022/08/18 05:47:29;;;;;;;20.88;13.10;;;;;;;24.54;100.00;100076.96;1703092;83;21035;-42
2022/08/18 05:50:08;;;;;;;20.32;12.10;;;;;;;24.61;100.00;100067.53;1693466;84;20933;-42
2022/08/18 05:52:40;;;;;;;16.00;11.57;;;;;;;24.71;100.00;100072.07;1703282;84;21012;-42
2022/08/18 05:58:10;;;;;;;16.67;12.68;;;;;;;24.78;100.00;100073.25;1693424;84;20917;-43
2022/08/18 06:00:37;;;;;;;19.27;12.63;;;;;;;24.72;100.00;100075.07;1702982;83;20979;-42
2022/08/18 06:03:18;;;;;;;25.05;12.47;;;;;;;24.60;100.00;100076.94;1693293;84;21037;-42
2022/08/18 06:06:00;;;;;;;19.95;13.68;;;;;;;24.53;100.00;100073.50;1673888;85;20973;-43
2022/08/18 06:08:38;;;;;;;19.05;14.40;;;;;;;24.55;100.00;100062.77;1702940;84;21236;-42
2022/08/18 06:11:05;;;;;;;16.65;12.85;;;;;;;24.64;100.00;100067.77;1693124;84;21471;-43
2022/08/18 06:13:39;;;;;;;34.20;13.88;;;;;;;24.80;100.00;100066.02;1702842;84;20992;-42
2022/08/18 06:16:17;;;;;;;25.32;12.37;;;;;;;24.88;100.00;100068.84;1693332;84;21016;-43
2022/08/18 06:19:02;;;;;;;21.60;12.98;;;;;;;24.97;100.00;100075.16;1702907;83;20928;-42
2022/08/18 06:21:56;;;;;;;17.97;13.77;;;;;;;25.10;100.00;100075.80;1701691;83;21114;-42
2022/08/18 06:24:31;;;;;;;26.57;15.15;;;;;;;25.20;100.00;100075.84;1702584;84;20968;-42
2022/08/18 06:27:38;;;;;;;22.93;14.15;;;;;;;25.37;100.00;100065.11;1693481;84;20960;-43
2022/08/18 06:30:25;;;;;;;24.23;14.05;;;;;;;25.56;100.00;100074.59;1703034;84;21027;-43
2022/08/18 06:33:49;;;;;;;21.57;13.62;;;;;;;25.65;100.00;100075.13;1693410;84;20956;-43
2022/08/18 06:36:41;;;;;;;26.82;14.28;;;;;;;25.71;100.00;100071.08;1702986;84;21251;-43
2022/08/18 06:39:30;;;;;;;17.80;12.95;;;;;;;25.89;100.00;100065.94;1686145;84;21458;-43
2022/08/18 06:41:57;;;;;;;20.88;12.55;;;;;;;26.02;100.00;100063.02;1673476;85;21135;-43
2022/08/18 06:44:31;;;;;;;24.60;12.75;;;;;;;26.11;100.00;100063.53;1700735;83;20909;-43
2022/08/18 06:47:09;;;;;;;20.37;12.93;;;;;;;26.10;100.00;100065.34;1696225;84;20933;-43
2022/08/18 06:49:53;;;;;;;25.17;13.22;;;;;;;26.08;100.00;100071.27;1695773;84;21464;-43
2022/08/18 06:52:32;;;;;;;22.67;11.57;;;;;;;26.08;100.00;100070.45;1695492;84;21553;-43
2022/08/18 06:55:12;;;;;;;21.82;12.00;;;;;;;26.03;100.00;100070.03;1695775;84;21020;-43
2022/08/18 06:57:43;;;;;;;25.20;12.15;;;;;;;26.05;100.00;100069.41;1696047;84;20949;-43
2022/08/18 07:00:21;;;;;;;28.20;12.10;;;;;;;26.10;100.00;100069.31;1686838;84;20913;-43
2022/08/18 07:03:06;;;;;;;31.12;13.50;;;;;;;26.26;100.00;100067.97;1695973;83;21352;-43
2022/08/18 07:05:35;;;;;;;31.07;13.33;;;;;;;26.43;99.66;100069.06;1696097;84;20999;-42
2022/08/18 07:08:18;;;;;;;24.15;12.10;;;;;;;26.49;99.76;100069.00;1696020;84;21023;-42
2022/08/18 07:10:48;;;;;;;27.87;12.20;;;;;;;26.59;99.01;100065.83;1696081;84;21446;-43
2022/08/18 07:13:23;;;;;;;25.70;11.63;;;;;;;26.72;98.84;100064.70;1696114;84;21576;-43
2022/08/18 07:15:50;;;;;;;26.27;13.00;;;;;;;26.71;97.06;100064.36;1696016;84;21368;-42
2022/08/18 07:18:23;;;;;;;26.23;11.08;;;;;;;26.74;97.48;100068.05;1695880;84;20928;-43
2022/08/18 07:20:55;;;;;;;26.15;10.10;;;;;;;26.88;96.30;100067.61;1695714;84;20968;-43
2022/08/18 07:23:32;;;;;;;28.52;9.50;;;;;;;26.95;93.27;100070.05;1694492;84;20968;-43
2022/08/18 07:26:16;;;;;;;22.00;8.40;;;;;;;27.11;93.75;100067.25;1695710;84;21475;-43
2022/08/18 07:28:46;;;;;;;30.90;8.78;;;;;;;27.28;91.45;100069.62;1695955;84;21288;-43
2022/08/18 07:31:36;;;;;;;30.35;9.58;;;;;;;27.46;90.99;100071.51;1695949;83;20906;-43
2022/08/18 07:34:26;;;;;;;40.00;9.78;;;;;;;27.53;88.97;100076.12;1696050;84;21008;-43
2022/08/18 07:37:22;;;;;;;20.70;9.40;;;;;;;27.52;88.27;100071.79;1667002;84;20972;-43
2022/08/18 07:39:53;;;;;;;;;;;;;;;27.64;87.55;100072.42;1698660;84;21095;-43
2022/08/18 07:42:43;;;;;;;16.35;9.23;;;;;;;27.82;86.34;100073.77;1695928;84;21995;-43
2022/08/18 07:45:28;;;;;;;18.62;8.88;;;;;;;27.98;86.14;100069.62;1695917;83;20988;-43
2022/08/18 07:48:13;;;;;;;21.45;8.75;;;;;;;28.07;86.94;100070.02;1696255;83;21003;-43
2022/08/18 07:50:58;;;;;;;19.23;7.70;;;;;;;28.28;86.50;100068.91;1686077;84;20957;-43
2022/08/18 07:54:01;;;;;;;14.03;7.10;;;;;;;28.40;85.46;100072.98;1696124;84;20877;-43
2022/08/18 07:56:52;;;;;;;17.85;7.45;;;;;;;28.58;82.60;100071.31;1696031;84;21261;-43
2022/08/18 07:59:52;;;;;;;15.72;7.17;;;;;;;28.75;82.58;100074.41;1692916;84;20958;-43
2022/08/18 08:02:43;;;;;;;14.50;7.15;;;;;;;28.98;80.27;100068.58;1695949;83;21004;-43
2022/08/18 08:05:30;;;;;;;15.48;5.95;;;;;;;29.01;80.79;100069.59;1668916;84;21537;-43
2022/08/18 08:08:35;;;;;;;13.38;6.22;;;;;;;29.04;76.25;100071.11;1689982;83;21007;-43
2022/08/18 08:11:40;;;;;;;17.15;5.37;;;;;;;29.04;76.16;100069.78;1671824;84;21244;-43
2022/08/18 08:14:34;;;;;;;13.38;6.30;;;;;;;29.24;75.26;100077.03;1695095;84;20953;-43
2022/08/18 08:17:24;;;;;;;16.05;6.42;;;;;;;29.42;75.67;100068.14;1678059;84;20965;-44
2022/08/18 08:20:07;;;;;;;10.28;5.58;;;;;;;29.56;74.24;100068.02;1695029;84;20964;-43
2022/08/18 08:23:02;;;;;;;14.03;6.40;;;;;;;29.77;73.25;100064.90;1696097;84;20909;-43
2022/08/18 08:26:04;;;;;;;15.95;6.30;;;;;;;29.91;72.26;100066.09;1695801;83;21981;-43
2022/08/18 08:28:52;;;;;;;14.58;6.15;;;;;;;30.08;73.58;100067.81;1692583;84;20991;-44
2022/08/18 08:31:43;;;;;;;15.08;6.08;;;;;;;30.39;71.91;100062.32;1696153;83;20920;-42
2022/08/18 08:34:28;;;;;;;15.58;6.22;;;;;;;30.68;70.68;100060.46;1632744;86;21355;-42
2022/08/18 08:37:02;;;;;;;17.37;6.45;;;;;;;31.00;70.31;100055.21;1683565;83;20948;-43
2022/08/18 08:39:49;;;;;;;14.03;6.58;;;;;;;31.25;69.14;100059.16;1696080;84;22641;-43
2022/08/18 08:42:34;;;;;;;20.97;6.85;;;;;;;31.22;66.70;100053.67;1695971;84;21023;-44
2022/08/18 08:45:08;;;;;;;10.90;6.03;;;;;;;31.40;67.49;100051.23;1695931;83;21551;-43
2022/08/18 08:48:10;;;;;;;13.75;6.35;;;;;;;31.65;66.42;100048.42;1695961;84;20897;-44
2022/08/18 08:50:47;;;;;;;12.93;6.92;;;;;;;31.46;65.31;100049.22;1695807;83;20925;-43
2022/08/18 08:53:34;;;;;;;20.27;7.00;;;;;;;31.27;67.85;100048.30;1696080;84;22184;-42
2022/08/18 08:56:10;;;;;;;18.25;7.50;;;;;;;31.36;68.32;100045.42;1695916;84;21317;-42
2022/08/18 08:58:56;;;;;;;13.75;7.55;;;;;;;31.54;67.80;100035.80;1696429;84;20988;-42
2022/08/18 09:01:38;;;;;;;20.15;7.25;;;;;;;31.78;66.87;100036.67;1695849;84;20968;-43
2022/08/18 09:04:29;;;;;;;15.53;7.00;;;;;;;31.85;67.52;100036.80;1694986;84;20956;-42
2022/08/18 09:07:31;;;;;;;11.78;6.22;;;;;;;32.03;66.32;100037.83;1695892;83;22083;-42
2022/08/18 09:10:41;;;;;;;13.30;6.30;;;;;;;32.25;63.70;100034.79;1695926;84;20941;-42
2022/08/18 09:13:31;;;;;;;12.53;6.33;;;;;;;32.30;62.70;100036.94;1695810;83;20956;-42
2022/08/18 09:16:22;;;;;;;12.63;6.33;;;;;;;32.37;62.24;100033.87;1695894;84;20981;-43
2022/08/18 09:19:30;;;;;;;9.53;5.20;;;;;;;32.61;61.09;100031.16;1696053;84;20917;-43
2022/08/18 09:22:07;;;;;;;10.15;5.70;;;;;;;32.81;59.24;100030.09;1695997;84;21869;-42
2022/08/18 09:24:49;;;;;;;15.83;7.22;;;;;;;32.86;56.91;100029.02;1695681;83;20909;-42
2022/08/18 09:27:45;;;;;;;14.53;6.67;;;;;;;32.81;59.10;100030.09;1695848;84;21031;-41
2022/08/18 09:30:53;;;;;;;18.20;6.05;;;;;;;32.73;58.14;100030.19;1696207;83;20900;-42
2022/08/18 09:33:47;;;;;;;16.10;6.78;;;;;;;32.90;59.59;100030.33;1696034;84;20944;-42
2022/08/18 09:36:40;;;;;;;12.53;5.35;;;;;;;32.95;57.01;100023.09;1695857;84;21135;-42
2022/08/18 09:42:35;;;;;;;11.43;5.60;;;;;;;32.85;53.27;100028.70;1695920;84;21115;-42
2022/08/18 09:45:07;;;;;;;11.43;6.00;;;;;;;32.81;55.73;100032.77;1712968;83;21021;-42
2022/08/18 09:47:40;;;;;;;13.88;5.42;;;;;;;32.98;57.66;100027.26;1717085;83;21016;-42
2022/08/18 09:50:18;;;;;;;11.97;6.20;;;;;;;33.15;58.14;100029.22;1716858;83;21125;-42
2022/08/18 09:52:46;;;;;;;13.88;5.78;;;;;;;33.27;55.63;100029.56;1714589;83;20965;-42
2022/08/18 09:55:24;;;;;;;18.12;5.65;;;;;;;33.34;56.68;100029.12;1716802;83;21495;-42
2022/08/18 09:58:19;;;;;;;9.75;5.58;;;;;;;33.43;54.34;100029.35;1716709;83;20978;-42
2022/08/18 10:00:50;;;;;;;11.83;4.90;;;;;;;33.54;55.44;100029.36;1717013;83;20989;-42
2022/08/18 10:03:23;;;;;;;10.60;5.40;;;;;;;33.71;54.10;100015.72;1712621;83;21295;-42
2022/08/18 10:06:07;;;;;;;8.33;5.60;;;;;;;33.97;55.92;100017.83;1716952;83;20956;-43
2022/08/18 10:08:55;;;;;;;14.30;5.63;;;;;;;34.14;50.96;100019.75;1721224;83;20986;-42
2022/08/18 10:11:49;;;;;;;14.25;5.80;;;;;;;34.06;52.20;100013.16;1692633;84;21010;-42
2022/08/18 10:14:35;;;;;;;18.52;5.75;;;;;;;34.06;50.96;100014.00;1692639;84;20958;-42
2022/08/18 10:17:26;;;;;;;13.35;5.75;;;;;;;34.24;50.89;100004.66;1692555;84;21042;-42
2022/08/18 10:20:13;;;;;;;8.83;5.33;;;;;;;34.51;50.85;100006.20;1692091;84;21533;-42
2022/08/18 10:22:43;;;;;;;9.08;5.33;;;;;;;34.77;50.71;100006.84;1692606;84;21005;-42
2022/08/18 10:25:10;;;;;;;12.73;5.53;;;;;;;34.83;49.56;99997.17;1692628;83;20927;-42
2022/08/18 10:27:48;;;;;;;15.15;5.30;;;;;;;34.84;52.01;100002.86;1692779;84;20887;-42
2022/08/18 10:30:36;;;;;;;15.23;5.40;;;;;;;34.69;50.16;100012.39;1692731;84;21316;-42
2022/08/18 10:33:07;;;;;;;12.50;5.47;;;;;;;34.24;50.65;100009.49;1692738;84;20978;-44
2022/08/18 10:35:40;;;;;;;9.83;6.25;;;;;;;34.05;50.66;100015.03;1692763;83;21034;-44
2022/08/18 10:38:19;;;;;;;21.57;7.50;;;;;;;33.88;52.52;100020.31;1721544;83;20927;-44
2022/08/18 10:41:03;;;;;;;16.75;7.28;;;;;;;33.87;51.96;100019.99;1721601;83;20979;-44
2022/08/18 10:43:43;;;;;;;14.00;6.95;;;;;;;33.51;53.14;100014.50;1692299;84;21997;-44
2022/08/18 10:46:21;;;;;;;12.50;6.87;;;;;;;33.19;53.39;100017.91;1692705;84;20903;-44
2022/08/18 10:49:06;;;;;;;18.45;7.55;;;;;;;32.91;53.12;100011.09;1692720;84;21533;-44
2022/08/18 10:52:05;;;;;;;17.10;6.50;;;;;;;32.93;53.58;100017.09;1692631;84;21057;-44
2022/08/18 10:54:50;;;;;;;19.62;6.97;;;;;;;32.82;53.58;100017.02;1692779;83;21007;-44
2022/08/18 10:57:59;;;;;;;14.87;6.03;;;;;;;32.60;54.90;100018.25;1692785;84;21164;-44
2022/08/18 11:00:43;;;;;;;10.95;6.15;;;;;;;32.29;54.06;100018.36;1721435;83;21532;-43
2022/08/18 11:03:28;;;;;;;15.13;7.10;;;;;;;32.09;55.01;100025.06;1721430;83;21010;-44
2022/08/18 11:06:08;;;;;;;13.32;7.17;;;;;;;31.94;55.48;100029.52;1693115;84;21002;-42
2022/08/18 11:08:40;;;;;;;15.90;7.03;;;;;;;31.76;56.44;100033.81;1692896;84;20939;-42
2022/08/18 11:11:09;;;;;;;19.23;7.78;;;;;;;31.93;57.34;100034.06;1688625;84;21115;-42
2022/08/18 11:13:47;;;;;;;13.50;8.45;;;;;;;32.28;57.86;100029.59;1721509;83;20888;-42
2022/08/18 11:16:36;;;;;;;16.10;8.15;;;;;;;32.74;59.20;100021.95;1692663;83;20982;-42
2022/08/18 11:19:09;;;;;;;13.10;8.20;;;;;;;33.21;57.11;100024.44;1692799;84;20939;-42
2022/08/18 11:21:41;;;;;;;18.85;7.50;;;;;;;33.55;56.58;100014.13;1692989;84;20991;-42
2022/08/18 11:24:23;;;;;;;29.18;8.18;;;;;;;33.75;53.17;100015.16;1692593;84;21122;-42
2022/08/18 11:27:00;;;;;;;14.75;7.95;;;;;;;33.78;52.82;100016.11;1692933;84;21565;-43
2022/08/18 11:29:35;;;;;;;27.55;8.78;;;;;;;33.79;53.84;100003.02;1692679;84;20935;-43
2022/08/18 11:32:25;;;;;;;25.92;10.40;;;;;;;33.72;54.79;100002.09;1687392;83;20947;-43
2022/08/18 11:35:03;;;;;;;32.83;15.48;;;;;;;33.35;54.27;99990.08;1703375;84;21011;-43
2022/08/18 11:37:55;;;;;;;15.40;9.20;;;;;;;32.87;56.00;100001.73;1721543;82;21464;-43
2022/08/18 11:40:32;;;;;;;19.98;11.12;;;;;;;32.35;57.77;100005.12;1692680;84;20947;-43
2022/08/18 11:43:14;;;;;;;15.58;11.00;;;;;;;31.80;58.98;100001.22;1692648;84;20955;-43
2022/08/18 11:45:53;;;;;;;22.02;9.00;;;;;;;31.29;61.04;99999.00;1721660;83;20860;-43
2022/08/18 11:48:39;;;;;;;10.98;8.95;;;;;;;30.98;62.78;99996.30;1721719;83;21521;-43
2022/08/18 11:51:20;;;;;;;19.42;9.48;;;;;;;30.81;63.31;100004.36;1692484;84;21939;-43
2022/08/18 11:53:58;;;;;;;14.70;9.38;;;;;;;30.65;63.75;99994.57;1692655;84;20919;-43
2022/08/18 11:56:32;;;;;;;17.57;9.35;;;;;;;30.57;64.03;99995.38;1692756;84;20987;-43
2022/08/18 11:59:22;;;;;;;12.47;8.30;;;;;;;30.73;65.34;99990.53;1721572;83;20911;-43
2022/08/18 12:01:51;;;;;;;15.00;8.60;;;;;;;31.09;64.21;99991.41;1721723;83;20974;-43
2022/08/18 12:04:38;;;;;;;15.18;8.43;;;;;;;31.54;62.39;99990.34;1692953;84;21958;-43
2022/08/18 12:07:12;;;;;;;14.65;8.23;;;;;;;32.09;61.50;99985.45;1692878;84;20928;-44